Time,TemperatureF,DewpointF,PressureIn,WindDirection,WindDirectionDegrees,WindSpeedMPH,WindSpeedGustMPH,Humidity,HourlyPrecipIn,Conditions,Clouds,dailyrainin,SolarRadiationWatts/m^2,SoftwareType,DateUTC
2013-04-18 00:03:00,55.0,31.0,-100.00,SSE,163,3.0,7.0,40,0.00,,,0.00,0.000000,,2013-04-18 04:03:00,
2013-04-18 00:33:00,57.0,32.0,-100.00,SSE,155,5.0,12.0,38,0.00,,,0.00,0.000000,,2013-04-18 04:33:00,
2013-04-18 00:43:00,57.0,32.0,-100.00,SSE,155,5.0,12.0,38,0.00,,,0.00,0.000000,,2013-04-18 04:43:00,
2013-04-18 00:53:00,57.0,32.0,-100.00,SSE,155,5.0,12.0,38,0.00,,,0.00,0.000000,,2013-04-18 04:53:00,
2013-04-18 01:02:00,57.0,32.0,-100.00,SSE,155,5.0,12.0,38,0.00,,,0.00,0.000000,,2013-04-18 05:02:00,
2013-04-18 01:33:00,57.0,33.0,-100.00,SSE,163,7.0,14.0,40,0.00,,,0.00,0.000000,,2013-04-18 05:33:00,
2013-04-18 01:42:00,57.0,33.0,-100.00,SSE,163,7.0,14.0,40,0.00,,,0.00,0.000000,,2013-04-18 05:42:00,
2013-04-18 01:52:00,57.0,33.0,-100.00,SSE,163,7.0,14.0,40,0.00,,,0.00,0.000000,,2013-04-18 05:52:00,
2013-04-18 02:02:00,57.0,33.0,-100.00,SSE,163,7.0,14.0,40,0.00,,,0.00,0.000000,,2013-04-18 06:02:00,
2013-04-18 02:32:00,57.0,33.0,-100.00,SSE,165,6.0,14.0,40,0.00,,,0.00,0.000000,,2013-04-18 06:32:00,
2013-04-18 02:42:00,57.0,33.0,-100.00,SSE,165,6.0,14.0,40,0.00,,,0.00,0.000000,,2013-04-18 06:42:00,
2013-04-18 02:52:00,57.0,33.0,-100.00,SSE,165,6.0,14.0,40,0.00,,,0.00,0.000000,,2013-04-18 06:52:00,
2013-04-18 03:02:00,57.0,33.0,-100.00,SSE,165,6.0,14.0,40,0.00,,,0.00,0.000000,,2013-04-18 07:02:00,
2013-04-18 03:32:00,57.0,34.0,-100.00,South,174,7.0,14.0,42,0.00,,,0.00,0.000000,,2013-04-18 07:32:00,
2013-04-18 03:42:00,57.0,34.0,-100.00,South,174,7.0,14.0,42,0.00,,,0.00,0.000000,,2013-04-18 07:42:00,
2013-04-18 03:53:00,57.0,34.0,-100.00,South,174,7.0,14.0,42,0.00,,,0.00,0.000000,,2013-04-18 07:53:00,
2013-04-18 04:02:00,57.0,34.0,-100.00,South,174,7.0,14.0,42,0.00,,,0.00,0.000000,,2013-04-18 08:02:00,
2013-04-18 04:32:00,58.0,37.0,-100.00,South,183,7.0,16.0,46,0.00,,,0.00,0.000000,,2013-04-18 08:32:00,
2013-04-18 04:42:00,58.0,37.0,-100.00,South,183,7.0,16.0,46,0.00,,,0.00,0.000000,,2013-04-18 08:42:00,
2013-04-18 04:52:00,58.0,37.0,-100.00,South,183,7.0,16.0,46,0.00,,,0.00,0.000000,,2013-04-18 08:52:00,
2013-04-18 05:02:00,58.0,37.0,-100.00,South,183,7.0,16.0,46,0.00,,,0.00,0.000000,,2013-04-18 09:02:00,
2013-04-18 05:33:00,58.0,41.0,-100.00,South,176,9.0,15.0,53,0.00,,,0.00,0.000000,,2013-04-18 09:33:00,
2013-04-18 05:43:00,58.0,41.0,-100.00,South,176,9.0,15.0,53,0.00,,,0.00,0.000000,,2013-04-18 09:43:00,
2013-04-18 05:53:00,58.0,41.0,-100.00,South,176,9.0,15.0,53,0.00,,,0.00,0.000000,,2013-04-18 09:53:00,
2013-04-18 06:03:00,58.0,41.0,-100.00,South,176,9.0,15.0,53,0.00,,,0.00,0.000000,,2013-04-18 10:03:00,
2013-04-18 06:33:00,58.0,45.0,-100.00,South,187,6.0,15.0,62,0.00,,,0.00,0.000000,,2013-04-18 10:33:00,
2013-04-18 06:42:00,58.0,45.0,-100.00,South,187,6.0,15.0,62,0.00,,,0.00,0.000000,,2013-04-18 10:42:00,
2013-04-18 06:53:00,58.0,45.0,-100.00,South,187,6.0,15.0,62,0.00,,,0.00,0.000000,,2013-04-18 10:53:00,
2013-04-18 07:03:00,58.0,45.0,-100.00,South,187,6.0,15.0,62,0.00,,,0.00,0.000000,,2013-04-18 11:03:00,
2013-04-18 07:32:00,59.0,49.0,-100.00,South,180,8.0,20.0,69,0.00,,,0.00,8.000000,,2013-04-18 11:32:00,
2013-04-18 07:42:00,59.0,49.0,-100.00,South,180,8.0,20.0,69,0.00,,,0.00,8.000000,,2013-04-18 11:42:00,
2013-04-18 07:52:00,59.0,49.0,-100.00,South,180,8.0,20.0,69,0.00,,,0.00,8.000000,,2013-04-18 11:52:00,
2013-04-18 08:02:00,59.0,49.0,-100.00,South,180,8.0,20.0,69,0.00,,,0.00,8.000000,,2013-04-18 12:02:00,
2013-04-18 08:32:00,61.0,52.0,-100.00,South,176,8.0,15.0,72,0.00,,,0.00,87.000000,,2013-04-18 12:32:00,
2013-04-18 08:42:00,61.0,52.0,-100.00,South,176,8.0,15.0,72,0.00,,,0.00,87.000000,,2013-04-18 12:42:00,
2013-04-18 08:52:00,61.0,52.0,-100.00,South,176,8.0,15.0,72,0.00,,,0.00,87.000000,,2013-04-18 12:52:00,
2013-04-18 09:03:00,61.0,52.0,-100.00,South,176,8.0,15.0,72,0.00,,,0.00,87.000000,,2013-04-18 13:03:00,
2013-04-18 09:33:00,64.0,54.0,-100.00,South,183,10.0,21.0,69,0.00,,,0.00,197.000000,,2013-04-18 13:33:00,
2013-04-18 09:43:00,64.0,54.0,-100.00,South,183,10.0,21.0,69,0.00,,,0.00,197.000000,,2013-04-18 13:43:00,
2013-04-18 09:53:00,64.0,54.0,-100.00,South,183,10.0,21.0,69,0.00,,,0.00,197.000000,,2013-04-18 13:53:00,
2013-04-18 10:03:00,64.0,54.0,-100.00,South,183,10.0,21.0,69,0.00,,,0.00,197.000000,,2013-04-18 14:03:00,
2013-04-18 10:33:00,68.0,54.0,-100.00,South,170,12.0,22.0,62,0.00,,,0.00,429.000000,,2013-04-18 14:33:00,
2013-04-18 10:43:00,68.0,54.0,-100.00,South,170,12.0,22.0,62,0.00,,,0.00,429.000000,,2013-04-18 14:43:00,
2013-04-18 10:52:00,68.0,54.0,-100.00,South,170,12.0,22.0,62,0.00,,,0.00,429.000000,,2013-04-18 14:52:00,
2013-04-18 11:03:00,68.0,54.0,-100.00,South,170,12.0,22.0,62,0.00,,,0.00,429.000000,,2013-04-18 15:03:00,
2013-04-18 11:33:00,72.0,55.0,-100.00,South,180,11.0,21.0,55,0.00,,,0.00,551.000000,,2013-04-18 15:33:00,
2013-04-18 11:43:00,72.0,55.0,-100.00,South,180,11.0,21.0,55,0.00,,,0.00,551.000000,,2013-04-18 15:43:00,
2013-04-18 11:53:00,72.0,55.0,-100.00,South,180,11.0,21.0,55,0.00,,,0.00,551.000000,,2013-04-18 15:53:00,
2013-04-18 12:03:00,72.0,55.0,-100.00,South,180,11.0,21.0,55,0.00,,,0.00,551.000000,,2013-04-18 16:03:00,
2013-04-18 12:33:00,77.0,56.0,-100.00,South,174,11.0,25.0,48,0.00,,,0.00,885.000000,,2013-04-18 16:33:00,
2013-04-18 12:43:00,77.0,56.0,-100.00,South,174,11.0,25.0,48,0.00,,,0.00,885.000000,,2013-04-18 16:43:00,
2013-04-18 12:53:00,77.0,56.0,-100.00,South,174,11.0,25.0,48,0.00,,,0.00,885.000000,,2013-04-18 16:53:00,
2013-04-18 13:03:00,77.0,56.0,-100.00,South,174,11.0,25.0,48,0.00,,,0.00,885.000000,,2013-04-18 17:03:00,
2013-04-18 13:33:00,77.0,56.0,-100.00,South,172,14.0,24.0,48,0.00,,,0.00,862.000000,,2013-04-18 17:33:00,
2013-04-18 13:43:00,77.0,56.0,-100.00,South,172,14.0,24.0,48,0.00,,,0.00,862.000000,,2013-04-18 17:43:00,
2013-04-18 13:52:00,77.0,56.0,-100.00,South,172,14.0,24.0,48,0.00,,,0.00,862.000000,,2013-04-18 17:52:00,
2013-04-18 14:03:00,77.0,56.0,-100.00,South,172,14.0,24.0,48,0.00,,,0.00,862.000000,,2013-04-18 18:03:00,
2013-04-18 14:33:00,77.0,56.0,-100.00,South,170,13.0,24.0,49,0.00,,,0.00,851.000000,,2013-04-18 18:33:00,
2013-04-18 14:43:00,77.0,56.0,-100.00,South,170,13.0,24.0,49,0.00,,,0.00,851.000000,,2013-04-18 18:43:00,
2013-04-18 14:53:00,77.0,56.0,-100.00,South,170,13.0,24.0,49,0.00,,,0.00,851.000000,,2013-04-18 18:53:00,
2013-04-18 15:03:00,77.0,56.0,-100.00,South,170,13.0,24.0,49,0.00,,,0.00,851.000000,,2013-04-18 19:03:00,
2013-04-18 15:33:00,76.0,57.0,-100.00,South,178,11.0,24.0,51,0.00,,,0.00,567.000000,,2013-04-18 19:33:00,
2013-04-18 15:43:00,76.0,57.0,-100.00,South,178,11.0,24.0,51,0.00,,,0.00,567.000000,,2013-04-18 19:43:00,
2013-04-18 15:53:00,76.0,57.0,-100.00,South,178,11.0,24.0,51,0.00,,,0.00,567.000000,,2013-04-18 19:53:00,
2013-04-18 16:03:00,76.0,57.0,-100.00,South,178,11.0,24.0,51,0.00,,,0.00,567.000000,,2013-04-18 20:03:00,
2013-04-18 16:32:00,78.0,57.0,-100.00,South,176,12.0,30.0,48,0.00,,,0.00,552.000000,,2013-04-18 20:32:00,
2013-04-18 16:43:00,78.0,57.0,-100.00,South,176,12.0,30.0,48,0.00,,,0.00,552.000000,,2013-04-18 20:43:00,
2013-04-18 16:52:00,78.0,57.0,-100.00,South,176,12.0,30.0,48,0.00,,,0.00,552.000000,,2013-04-18 20:52:00,
2013-04-18 17:03:00,78.0,57.0,-100.00,South,176,12.0,30.0,48,0.00,,,0.00,552.000000,,2013-04-18 21:03:00,
2013-04-18 18:33:00,74.0,57.0,-100.00,SSE,167,10.0,24.0,56,-99.99,,,0.00,311.000000,,2013-04-18 22:33:00,
2013-04-18 18:42:00,74.0,57.0,-100.00,SSE,167,10.0,24.0,56,-99.99,,,0.00,311.000000,,2013-04-18 22:42:00,
2013-04-18 18:53:00,74.0,57.0,-100.00,SSE,167,10.0,24.0,56,-99.99,,,0.00,311.000000,,2013-04-18 22:53:00,
2013-04-18 19:04:00,74.0,57.0,-100.00,SSE,167,10.0,24.0,56,-99.99,,,0.00,311.000000,,2013-04-18 23:04:00,
2013-04-18 19:32:00,70.0,57.0,-100.00,SSE,166,8.0,24.0,64,0.00,,,0.00,171.000000,,2013-04-18 23:32:00,
2013-04-18 19:42:00,70.0,57.0,-100.00,SSE,166,8.0,24.0,64,0.00,,,0.00,171.000000,,2013-04-18 23:42:00,
2013-04-18 19:52:00,70.0,57.0,-100.00,SSE,166,8.0,24.0,64,0.00,,,0.00,171.000000,,2013-04-18 23:52:00,
2013-04-18 20:01:00,70.0,57.0,-100.00,SSE,166,8.0,24.0,64,0.00,,,0.00,171.000000,,2013-04-19 00:01:00,
2013-04-18 20:32:00,66.0,56.0,-100.00,SSE,156,9.0,27.0,70,0.00,,,0.00,27.000000,,2013-04-19 00:32:00,
2013-04-18 20:42:00,66.0,56.0,-100.00,SSE,156,9.0,27.0,70,0.00,,,0.00,27.000000,,2013-04-19 00:42:00,
2013-04-18 20:52:00,66.0,56.0,-100.00,SSE,156,9.0,27.0,70,0.00,,,0.00,27.000000,,2013-04-19 00:52:00,
2013-04-18 21:01:00,66.0,56.0,-100.00,SSE,156,9.0,27.0,70,0.00,,,0.00,27.000000,,2013-04-19 01:01:00,
2013-04-18 21:32:00,66.0,57.0,-100.00,SSE,159,10.0,18.0,74,0.00,,,0.00,0.000000,,2013-04-19 01:32:00,
2013-04-18 21:42:00,66.0,57.0,-100.00,SSE,159,10.0,18.0,74,0.00,,,0.00,0.000000,,2013-04-19 01:42:00,
2013-04-18 21:52:00,66.0,57.0,-100.00,SSE,159,10.0,18.0,74,0.00,,,0.00,0.000000,,2013-04-19 01:52:00,
2013-04-18 22:02:00,66.0,57.0,-100.00,SSE,159,10.0,18.0,74,0.00,,,0.00,0.000000,,2013-04-19 02:02:00,
2013-04-18 22:32:00,67.0,56.0,-100.00,South,173,12.0,27.0,69,0.00,,,0.00,0.000000,,2013-04-19 02:32:00,
2013-04-18 22:42:00,67.0,56.0,-100.00,South,173,12.0,27.0,69,0.00,,,0.00,0.000000,,2013-04-19 02:42:00,
2013-04-18 22:52:00,67.0,56.0,-100.00,South,173,12.0,27.0,69,0.00,,,0.00,0.000000,,2013-04-19 02:52:00,
2013-04-18 23:01:00,67.0,56.0,-100.00,South,173,12.0,27.0,69,0.00,,,0.00,0.000000,,2013-04-19 03:01:00,
2013-04-18 23:33:00,67.0,55.0,-100.00,South,177,11.0,24.0,66,0.00,,,0.00,0.000000,,2013-04-19 03:33:00,
2013-04-18 23:43:00,67.0,55.0,-100.00,South,177,11.0,24.0,66,0.00,,,0.00,0.000000,,2013-04-19 03:43:00,
2013-04-18 23:53:00,67.0,55.0,-100.00,South,177,11.0,24.0,66,0.00,,,0.00,0.000000,,2013-04-19 03:53:00,